Time;durP1;ratioP1;P1;durP2;ratioP2;P2;SDS_P1;SDS_P2;PMS_P1;PMS_P2;Temp;Humidity;BMP_temperature;BMP_pressure;BME280_temperature;BME280_humidity;BME280_pressure;Samples;Min_cycle;Max_cycle;Signal;HPM_P1;HPM_P2
2023/01/26 00:08:27;;;;;;;8.55;5.25;;;;;;;20.71;nan;101079.09;20839598;28;20045;-74
2023/01/26 00:18:28;;;;;;;10.52;5.80;;;;;;;20.69;nan;101067.81;20835293;28;20044;-75
2023/01/26 00:28:29;;;;;;;8.95;5.47;;;;;;;20.69;nan;101063.41;20840335;28;20040;-75
2023/01/26 00:38:29;;;;;;;9.20;5.65;;;;;;;20.66;nan;101065.38;20816963;28;20179;-76
2023/01/26 00:48:30;;;;;;;9.85;5.47;;;;;;;20.66;nan;101057.50;20832419;28;20044;-76
2023/01/26 00:58:30;;;;;;;8.70;5.65;;;;;;;20.64;nan;101042.63;20838004;28;20044;-75
2023/01/26 01:08:30;;;;;;;8.90;5.30;;;;;;;20.61;nan;101045.44;20826292;28;20136;-75
2023/01/26 01:18:31;;;;;;;7.95;5.13;;;;;;;20.61;nan;101048.09;20824863;28;20048;-74
2023/01/26 01:28:33;;;;;;;7.85;4.95;;;;;;;20.59;nan;101035.97;20830961;28;20053;-75
2023/01/26 01:38:34;;;;;;;10.15;5.60;;;;;;;20.57;nan;101025.56;20819115;28;20131;-76
2023/01/26 01:48:44;;;;;;;6.32;4.63;;;;;;;20.56;nan;101020.41;20814816;28;20075;-75
2023/01/26 01:58:45;;;;;;;7.43;4.93;;;;;;;20.55;nan;101013.44;20822247;28;20523;-75
2023/01/26 02:08:51;;;;;;;7.32;4.75;;;;;;;20.54;nan;100996.81;20819417;28;20449;-75
2023/01/26 02:18:52;;;;;;;7.03;4.88;;;;;;;20.51;nan;100983.00;20838913;28;20453;-75
2023/01/26 02:28:54;;;;;;;7.32;4.82;;;;;;;20.52;nan;100979.44;20825540;28;20053;-75
2023/01/26 02:39:13;;;;;;;7.00;4.80;;;;;;;20.47;nan;100956.91;20845294;28;20055;-75
2023/01/26 02:59:32;;;;;;;6.35;4.40;;;;;;;20.44;nan;100940.47;20851433;28;20052;-75
2023/01/26 03:09:33;;;;;;;6.28;4.35;;;;;;;20.43;nan;100920.38;20841332;28;20598;-75
2023/01/26 03:29:53;;;;;;;7.07;4.40;;;;;;;20.41;nan;100904.69;20847482;28;20423;-75
2023/01/26 04:00:32;;;;;;;7.65;4.40;;;;;;;20.39;nan;100872.38;20840198;28;20040;-74
2023/01/26 04:10:32;;;;;;;8.27;4.60;;;;;;;20.39;nan;100874.19;20836758;28;20126;-74
2023/01/26 04:30:53;;;;;;;8.85;4.40;;;;;;;20.39;nan;100853.16;20847154;28;20099;-75
2023/01/26 04:40:54;;;;;;;6.38;4.28;;;;;;;20.37;nan;100849.78;20839995;28;20549;-74
2023/01/26 04:50:56;;;;;;;6.53;4.10;;;;;;;20.38;nan;100849.66;20830252;28;20045;-75
2023/01/26 05:00:57;;;;;;;6.00;3.90;;;;;;;20.38;nan;100843.56;20816429;28;20048;-75
2023/01/26 05:10:57;;;;;;;5.78;4.13;;;;;;;20.37;nan;100847.13;20818710;28;20099;-75
2023/01/26 05:20:58;;;;;;;6.40;3.92;;;;;;;20.42;nan;100845.03;20812660;28;20037;-74
2023/01/26 05:30:58;;;;;;;5.63;3.97;;;;;;;20.51;nan;100836.53;20825382;28;20143;-77
2023/01/26 05:40:59;;;;;;;6.55;3.38;;;;;;;20.59;nan;100843.91;20839450;28;20131;-75
2023/01/26 05:50:59;;;;;;;10.80;5.20;;;;;;;20.66;nan;100849.59;20832303;28;20095;-78
2023/01/26 06:01:03;;;;;;;17.52;7.55;;;;;;;19.93;nan;100857.88;20851348;28;20407;-82
2023/01/26 06:11:04;;;;;;;13.88;7.05;;;;;;;20.05;nan;100847.47;20851690;28;20048;-84
2023/01/26 06:21:05;;;;;;;10.57;5.53;;;;;;;20.28;nan;100843.34;20844045;28;20064;-80
2023/01/26 06:31:07;;;;;;;10.00;5.03;;;;;;;20.26;nan;100853.09;20866881;28;21192;-76
2023/01/26 06:41:08;;;;;;;10.38;5.70;;;;;;;20.27;nan;100834.59;20898722;28;20041;-79
2023/01/26 06:51:14;;;;;;;19.73;6.45;;;;;;;20.39;nan;100830.31;20833270;28;20067;-81
2023/01/26 07:01:20;;;;;;;12.82;5.57;;;;;;;20.52;nan;100825.06;20898081;28;20125;-84
2023/01/26 07:11:21;;;;;;;15.32;6.35;;;;;;;20.56;nan;100825.72;20884757;28;20101;-82
2023/01/26 07:21:23;;;;;;;17.58;5.88;;;;;;;20.66;nan;100823.28;20904741;28;20408;-82
2023/01/26 07:31:23;;;;;;;15.48;5.95;;;;;;;20.76;nan;100814.69;20948073;28;20045;-83
2023/01/26 07:41:27;;;;;;;12.40;5.60;;;;;;;20.83;nan;100803.75;20961523;28;20048;-86
2023/01/26 07:51:27;;;;;;;13.93;5.45;;;;;;;20.90;nan;100808.47;20949756;28;20142;-83
2023/01/26 08:01:29;;;;;;;12.80;5.70;;;;;;;20.81;nan;100805.63;20899687;28;20068;-87
2023/01/26 08:11:29;;;;;;;9.73;4.83;;;;;;;20.91;nan;100809.31;20901037;28;20052;-87
2023/01/26 08:21:30;;;;;;;12.93;4.75;;;;;;;20.98;nan;100807.09;20889520;28;20098;-84
2023/01/26 08:31:32;;;;;;;14.00;5.10;;;;;;;21.03;nan;100799.72;20918294;28;20071;-84
2023/01/26 08:41:32;;;;;;;7.15;3.95;;;;;;;21.07;nan;100807.28;20905507;28;20033;-88
2023/01/26 08:51:33;;;;;;;9.18;4.43;;;;;;;21.11;nan;100800.84;20867344;28;20084;-85
2023/01/26 09:01:33;;;;;;;8.38;4.10;;;;;;;21.15;nan;100809.38;20862072;28;20064;-82
2023/01/26 09:11:34;;;;;;;13.70;5.05;;;;;;;21.18;nan;100803.91;20822493;28;20443;-87
2023/01/26 09:21:34;;;;;;;9.87;4.77;;;;;;;21.18;nan;100806.53;20824703;28;20059;-85
2023/01/26 09:31:35;;;;;;;8.23;4.88;;;;;;;21.19;nan;100802.09;20797929;28;20298;-78
2023/01/26 09:41:35;;;;;;;26.35;12.40;;;;;;;21.21;nan;100794.94;20841732;28;20049;-82
2023/01/26 09:52:05;;;;;;;10.00;4.90;;;;;;;21.19;nan;100788.94;20809078;28;20558;-84
2023/01/26 10:02:30;;;;;;;9.52;5.97;;;;;;;21.19;nan;100775.75;20793234;28;20060;-81
2023/01/26 10:12:35;;;;;;;7.95;4.82;;;;;;;21.18;nan;100759.13;20810595;28;20045;-85
2023/01/26 10:22:47;;;;;;;9.38;5.47;;;;;;;21.19;nan;100749.44;20846721;28;20037;-82
2023/01/26 10:32:51;;;;;;;9.53;4.77;;;;;;;21.18;nan;100729.31;20872252;28;20041;-82
2023/01/26 10:42:57;;;;;;;8.23;4.80;;;;;;;21.18;nan;100724.91;20886095;28;20061;-83
2023/01/26 10:53:03;;;;;;;8.15;4.55;;;;;;;21.17;nan;100723.22;20884411;28;20044;-85
2023/01/26 11:03:05;;;;;;;6.68;4.45;;;;;;;21.15;nan;100696.13;20951391;28;20040;-82
2023/01/26 11:13:18;;;;;;;8.00;5.07;;;;;;;21.13;nan;100686.69;20935596;28;20078;-84
2023/01/26 11:23:50;;;;;;;9.57;4.93;;;;;;;21.13;nan;100677.00;20919308;28;20617;-86
2023/01/26 11:34:01;;;;;;;9.30;4.82;;;;;;;21.14;nan;100670.78;20929204;28;20037;-84
2023/01/26 11:44:28;;;;;;;7.10;4.40;;;;;;;21.15;nan;100661.91;20950307;28;20049;-85
2023/01/26 11:54:56;;;;;;;9.13;4.88;;;;;;;21.17;nan;100638.94;20944926;28;20033;-78
2023/01/26 12:05:02;;;;;;;8.85;5.22;;;;;;;21.16;nan;100618.00;20961702;28;21503;-82
2023/01/26 12:15:05;;;;;;;7.78;4.72;;;;;;;21.17;nan;100614.41;20959622;28;20040;-81
2023/01/26 12:25:27;;;;;;;6.80;4.10;;;;;;;21.16;nan;100597.75;20974073;28;20059;-86
2023/01/26 12:36:09;;;;;;;10.73;4.57;;;;;;;21.15;nan;100580.28;20963146;28;20622;-84
2023/01/26 12:46:12;;;;;;;9.40;4.45;;;;;;;21.15;nan;100582.91;20927952;28;20048;-81
2023/01/26 12:56:39;;;;;;;10.13;4.60;;;;;;;21.12;nan;100572.63;20961299;28;20052;-86
2023/01/26 13:06:40;;;;;;;12.32;9.45;;;;;;;21.13;nan;100569.03;20931478;28;20126;-87
2023/01/26 13:16:40;;;;;;;15.82;13.93;;;;;;;21.13;nan;100565.53;20985708;28;20103;-82
2023/01/26 13:26:44;;;;;;;10.75;4.20;;;;;;;21.13;nan;100557.66;20936789;28;20563;-82
2023/01/26 13:36:47;;;;;;;10.45;8.10;;;;;;;21.15;nan;100568.91;20965471;28;20123;-80
2023/01/26 13:47:06;;;;;;;10.82;4.60;;;;;;;21.11;nan;100570.94;20957771;28;20056;-85
2023/01/26 13:57:09;;;;;;;10.20;4.30;;;;;;;21.14;nan;100561.97;20943997;28;20064;-83
2023/01/26 14:07:16;;;;;;;9.45;4.50;;;;;;;21.13;nan;100558.50;20962496;28;20045;-85
2023/01/26 14:17:38;;;;;;;15.68;4.65;;;;;;;21.14;nan;100556.69;20960961;28;20036;-76
2023/01/26 14:27:41;;;;;;;15.30;5.17;;;;;;;21.14;nan;100567.22;20941831;28;20048;-78
2023/01/26 14:37:43;;;;;;;11.70;4.90;;;;;;;21.18;nan;100563.41;20935861;28;20049;-77
2023/01/26 14:47:44;;;;;;;15.75;5.43;;;;;;;21.16;nan;100550.38;20941935;28;21374;-82
2023/01/26 14:57:44;;;;;;;7.82;4.45;;;;;;;21.17;nan;100545.97;20957592;28;20048;-82
2023/01/26 15:07:53;;;;;;;14.93;4.75;;;;;;;21.13;nan;100544.47;20964163;28;20045;-81
2023/01/26 15:18:16;;;;;;;13.68;4.82;;;;;;;21.11;nan;100552.50;20989301;28;20078;-80
2023/01/26 15:28:18;;;;;;;;;;;;;;;21.07;nan;100551.06;20960250;28;20131;-82
2023/01/26 15:38:18;;;;;;;14.57;5.65;;;;;;;21.03;nan;100550.44;20965375;28;19999;-76
2023/01/26 15:48:19;;;;;;;10.65;5.25;;;;;;;21.01;nan;100546.25;20936278;28;20070;-79
2023/01/26 15:58:24;;;;;;;10.68;4.60;;;;;;;21.01;nan;100557.63;20928950;28;20067;-80
2023/01/26 16:08:25;;;;;;;22.13;4.80;;;;;;;21.03;nan;100550.44;20939883;28;20136;-80
2023/01/26 16:18:25;;;;;;;10.65;4.38;;;;;;;21.03;nan;100557.50;20945977;28;20052;-81
2023/01/26 16:28:29;;;;;;;10.80;4.57;;;;;;;21.02;nan;100548.78;20955676;28;20060;-80
2023/01/26 16:38:31;;;;;;;10.55;4.97;;;;;;;21.00;nan;100549.84;20943056;28;20074;-79
2023/01/26 16:48:33;;;;;;;13.68;6.35;;;;;;;20.93;nan;100545.03;20890173;28;20580;-80
2023/01/26 16:58:34;;;;;;;13.90;7.83;;;;;;;20.87;nan;100540.22;20887853;28;20740;-81
2023/01/26 17:08:37;;;;;;;95.13;49.97;;;;;;;20.86;nan;100537.69;20884998;28;20139;-80
2023/01/26 17:18:38;;;;;;;82.95;43.85;;;;;;;20.89;nan;100535.66;20934672;28;20059;-91
2023/01/26 17:28:38;;;;;;;91.82;46.17;;;;;;;20.91;nan;100538.19;20922385;28;20044;-83
2023/01/26 17:38:39;;;;;;;73.57;41.38;;;;;;;20.94;nan;100530.91;20902973;28;20043;-76
2023/01/26 17:48:40;;;;;;;75.13;38.72;;;;;;;20.92;nan;100524.91;20897415;28;20557;-77
2023/01/26 17:58:45;;;;;;;68.28;37.75;;;;;;;20.94;nan;100514.28;20929909;28;20178;-76
2023/01/26 18:08:46;;;;;;;64.93;35.15;;;;;;;20.93;nan;100528.38;20924456;28;20135;-76
2023/01/26 18:18:56;;;;;;;60.78;33.92;;;;;;;20.93;nan;100528.38;20914795;28;20035;-81
2023/01/26 18:28:57;;;;;;;108.35;46.97;;;;;;;20.95;nan;100521.22;20923638;28;20045;-82
2023/01/26 18:39:01;;;;;;;98.88;44.55;;;;;;;21.01;nan;100520.75;20913858;28;20056;-79
2023/01/26 18:49:08;;;;;;;79.40;39.70;;;;;;;21.13;nan;100529.53;20929870;28;20059;-80
2023/01/26 18:59:11;;;;;;;74.50;37.78;;;;;;;21.21;nan;100524.50;20946756;28;20052;-79
2023/01/26 19:09:12;;;;;;;76.03;35.20;;;;;;;21.20;nan;100522.00;20954080;28;20044;-78
2023/01/26 19:19:12;;;;;;;70.35;32.00;;;;;;;21.25;nan;100499.66;20930267;28;20045;-80
2023/01/26 19:29:13;;;;;;;58.20;29.45;;;;;;;21.21;nan;100498.19;20908365;28;20051;-82
2023/01/26 19:39:15;;;;;;;56.10;28.45;;;;;;;21.27;nan;100491.63;20912151;28;20075;-81
2023/01/26 19:49:18;;;;;;;50.00;24.10;;;;;;;21.17;nan;100485.38;20913363;28;20059;-78
2023/01/26 19:59:21;;;;;;;46.80;23.17;;;;;;;21.10;nan;100477.97;20953506;28;20048;-78
2023/01/26 20:09:22;;;;;;;48.15;22.17;;;;;;;21.07;nan;100482.63;20946280;28;20041;-77
2023/01/26 20:19:23;;;;;;;39.08;21.13;;;;;;;21.03;nan;100467.97;20932289;28;20280;-79
2023/01/26 20:29:23;;;;;;;36.03;19.38;;;;;;;21.03;nan;100465.34;20938425;28;20048;-79
2023/01/26 20:39:29;;;;;;;38.13;18.23;;;;;;;21.00;nan;100470.88;20923685;28;20042;-77
2023/01/26 20:49:29;;;;;;;34.05;18.70;;;;;;;20.97;nan;100464.03;20932363;28;20163;-78
2023/01/26 20:59:30;;;;;;;32.45;17.15;;;;;;;20.98;nan;100470.13;20914451;28;20054;-78
2023/01/26 21:09:31;;;;;;;30.60;16.33;;;;;;;20.94;nan;100465.09;20920489;28;20083;-77
2023/01/26 21:19:32;;;;;;;25.63;15.45;;;;;;;20.92;nan;100460.91;20914208;28;20074;-80
2023/01/26 21:29:32;;;;;;;24.15;14.20;;;;;;;20.90;nan;100449.66;20929258;28;20043;-78
2023/01/26 21:39:33;;;;;;;24.00;14.00;;;;;;;20.88;nan;100448.94;20923902;28;20090;-78
2023/01/26 21:49:35;;;;;;;24.80;13.80;;;;;;;20.83;nan;100436.09;20934526;28;20139;-78
2023/01/26 21:59:35;;;;;;;23.15;13.10;;;;;;;20.84;nan;100434.34;20915940;28;20275;-78
2023/01/26 22:09:37;;;;;;;23.42;13.30;;;;;;;20.80;nan;100417.94;20900964;28;20045;-78
2023/01/26 22:19:38;;;;;;;19.73;11.97;;;;;;;20.79;nan;100416.25;20903481;28;20120;-78
2023/01/26 22:29:38;;;;;;;23.95;12.45;;;;;;;20.77;nan;100408.44;20894637;28;20040;-78
2023/01/26 22:39:39;;;;;;;20.88;11.75;;;;;;;20.71;nan;100403.63;20908574;28;20048;-78
2023/01/26 22:49:39;;;;;;;21.70;11.10;;;;;;;20.71;nan;100390.47;20921774;28;20040;-79
2023/01/26 22:59:40;;;;;;;18.38;10.93;;;;;;;20.70;nan;100395.84;20926262;28;20053;-78
2023/01/26 23:09:41;;;;;;;16.98;10.50;;;;;;;20.67;nan;100383.75;20900299;28;20570;-79
2023/01/26 23:19:41;;;;;;;17.85;10.80;;;;;;;20.66;nan;100379.44;20914815;28;20123;-79
2023/01/26 23:29:42;;;;;;;19.17;10.80;;;;;;;20.63;nan;100372.63;20920878;28;20534;-79
2023/01/26 23:39:42;;;;;;;14.90;9.10;;;;;;;20.60;nan;100367.63;20914235;28;24339;-77
2023/01/26 23:49:43;;;;;;;18.42;10.23;;;;;;;20.59;nan;100362.44;20905747;28;20080;-77
2023/01/26 23:59:43;;;;;;;15.02;9.23;;;;;;;20.56;nan;100355.63;20911874;28;20040;-78
